ACA522 CYEG-CYYC
Flight info
| Callsign | ACA522 |
|---|---|
| Flight time | 0h 29m |
| Altitude | 27000 |
| Route | OLIMI Q814 ADVOX ADVOX9 |
| Aircraft | A321/M-SDE3FGHIRWY/LB1 |
Departure
| Time | 2026-04-29 01:49 |
|---|---|
| Airport | Edmonton International Airport (CYEG) |
Arrival
| Time | 2026-04-29 02:19 |
|---|---|
| Airport | Calgary International Airport (CYYC) |
| Time | Latitude | Longitude | Altitude | Speed | Heading |
|---|---|---|---|---|---|
| 2026-04-29 01:20 | 53.30602 | -113.58487 | 2384 ft | 0 kts | 70° |
| 2026-04-29 01:31 | 53.30602 | -113.58488 | 2384 ft | 1 kts | 70° |
| 2026-04-29 01:31 | 53.30598 | -113.58510 | 2384 ft | 3 kts | 70° |
| 2026-04-29 01:32 | 53.30593 | -113.58532 | 2388 ft | 3 kts | 71° |
| 2026-04-29 01:32 | 53.30584 | -113.58572 | 2384 ft | 3 kts | 58° |
| 2026-04-29 01:32 | 53.30573 | -113.58595 | 2390 ft | 3 kts | 25° |
| 2026-04-29 01:32 | 53.30558 | -113.58602 | 2390 ft | 3 kts | 336° |
| 2026-04-29 01:33 | 53.30548 | -113.58592 | 2389 ft | 1 kts | 315° |
| 2026-04-29 01:33 | 53.30537 | -113.58573 | 2387 ft | 2 kts | 315° |
| 2026-04-29 01:33 | 53.30533 | -113.58567 | 2387 ft | 0 kts | 315° |
| 2026-04-29 01:35 | 53.30538 | -113.58575 | 2387 ft | 6 kts | 315° |
| 2026-04-29 01:35 | 53.30579 | -113.58644 | 2386 ft | 16 kts | 313° |
| 2026-04-29 01:35 | 53.30541 | -113.58840 | 2389 ft | 15 kts | 226° |
| 2026-04-29 01:36 | 53.30537 | -113.58940 | 2384 ft | 14 kts | 300° |
| 2026-04-29 01:36 | 53.30606 | -113.59062 | 2388 ft | 15 kts | 315° |
| 2026-04-29 01:36 | 53.30683 | -113.59189 | 2388 ft | 16 kts | 315° |
| 2026-04-29 01:36 | 53.30702 | -113.59219 | 2384 ft | 0 kts | 315° |
| 2026-04-29 01:38 | 53.30702 | -113.59220 | 2384 ft | 0 kts | 315° |
| 2026-04-29 01:38 | 53.30748 | -113.59294 | 2384 ft | 22 kts | 316° |
| 2026-04-29 01:38 | 53.30842 | -113.59443 | 2388 ft | 7 kts | 316° |
| 2026-04-29 01:39 | 53.30891 | -113.59524 | 2385 ft | 19 kts | 316° |
| 2026-04-29 01:39 | 53.30963 | -113.59534 | 2385 ft | 0 kts | 34° |
| 2026-04-29 01:39 | 53.30974 | -113.59520 | 2385 ft | 15 kts | 34° |
| 2026-04-29 01:40 | 53.31410 | -113.59015 | 2385 ft | 128 kts | 34° |
| 2026-04-29 01:40 | 53.31770 | -113.58592 | 2383 ft | 27 kts | 35° |
| 2026-04-29 01:40 | 53.31909 | -113.58429 | 2383 ft | 25 kts | 35° |
| 2026-04-29 01:40 | 53.32049 | -113.58265 | 2387 ft | 24 kts | 34° |
| 2026-04-29 01:41 | 53.32188 | -113.58103 | 2389 ft | 24 kts | 41° |
| 2026-04-29 01:41 | 53.32240 | -113.57847 | 2384 ft | 23 kts | 79° |
| 2026-04-29 01:41 | 53.32246 | -113.57791 | 2385 ft | 0 kts | 79° |
| 2026-04-29 01:43 | 53.32246 | -113.57790 | 2385 ft | 0 kts | 79° |
| 2026-04-29 01:43 | 53.32247 | -113.57788 | 2385 ft | 0 kts | 79° |
| 2026-04-29 01:44 | 53.32250 | -113.57762 | 2385 ft | 8 kts | 79° |
| 2026-04-29 01:44 | 53.32211 | -113.57665 | 2385 ft | 12 kts | 196° |
| 2026-04-29 01:44 | 53.32138 | -113.57744 | 2389 ft | 15 kts | 217° |
| 2026-04-29 01:44 | 53.32025 | -113.57883 | 2389 ft | 22 kts | 214° |
| 2026-04-29 01:45 | 53.31899 | -113.58031 | 2385 ft | 22 kts | 215° |
| 2026-04-29 01:45 | 53.31769 | -113.58180 | 2384 ft | 23 kts | 214° |
| 2026-04-29 01:45 | 53.31635 | -113.58337 | 2388 ft | 24 kts | 215° |
| 2026-04-29 01:45 | 53.31498 | -113.58498 | 2385 ft | 24 kts | 215° |
| 2026-04-29 01:46 | 53.31357 | -113.58664 | 2386 ft | 25 kts | 215° |
| 2026-04-29 01:46 | 53.31211 | -113.58833 | 2386 ft | 26 kts | 214° |
| 2026-04-29 01:46 | 53.31061 | -113.59007 | 2384 ft | 27 kts | 215° |
| 2026-04-29 01:46 | 53.30911 | -113.59183 | 2386 ft | 22 kts | 215° |
| 2026-04-29 01:47 | 53.30838 | -113.59275 | 2384 ft | 8 kts | 234° |
| 2026-04-29 01:47 | 53.30829 | -113.59365 | 2384 ft | 8 kts | 266° |
| 2026-04-29 01:47 | 53.30848 | -113.59453 | 2384 ft | 8 kts | 310° |
| 2026-04-29 01:47 | 53.30851 | -113.59460 | 2384 ft | 0 kts | 312° |
| 2026-04-29 01:48 | 53.30893 | -113.59530 | 2385 ft | 18 kts | 317° |
| 2026-04-29 01:48 | 53.30977 | -113.59517 | 2385 ft | 0 kts | 34° |
| 2026-04-29 01:48 | 53.31373 | -113.59054 | 2385 ft | 128 kts | 35° |
| 2026-04-29 01:49 | 53.32292 | -113.57990 | 2928 ft | 174 kts | 33° |
| 2026-04-29 01:49 | 53.33305 | -113.56832 | 4256 ft | 181 kts | 34° |
| 2026-04-29 01:49 | 53.34356 | -113.55630 | 5094 ft | 190 kts | 33° |
| 2026-04-29 01:49 | 53.35503 | -113.54325 | 5557 ft | 210 kts | 32° |
| 2026-04-29 01:50 | 53.36938 | -113.53510 | 5894 ft | 233 kts | 1° |
| 2026-04-29 01:50 | 53.38579 | -113.54197 | 6475 ft | 258 kts | 329° |
| 2026-04-29 01:50 | 53.39861 | -113.56340 | 7543 ft | 266 kts | 301° |
| 2026-04-29 01:50 | 53.40425 | -113.59305 | 8481 ft | 273 kts | 277° |
| 2026-04-29 01:51 | 53.40268 | -113.62500 | 9238 ft | 277 kts | 265° |
| 2026-04-29 01:51 | 53.39922 | -113.65693 | 9974 ft | 280 kts | 264° |
| 2026-04-29 01:51 | 53.39541 | -113.68898 | 10602 ft | 282 kts | 264° |
| 2026-04-29 01:51 | 53.39091 | -113.72121 | 11193 ft | 290 kts | 254° |
| 2026-04-29 01:52 | 53.38000 | -113.74987 | 12117 ft | 306 kts | 230° |
| 2026-04-29 01:52 | 53.36163 | -113.77090 | 12632 ft | 339 kts | 206° |
| 2026-04-29 01:52 | 53.33892 | -113.78609 | 13081 ft | 364 kts | 203° |
| 2026-04-29 01:52 | 53.31457 | -113.80119 | 13744 ft | 380 kts | 202° |
| 2026-04-29 01:53 | 53.28949 | -113.81628 | 14625 ft | 386 kts | 202° |
| 2026-04-29 01:53 | 53.26404 | -113.83155 | 15541 ft | 391 kts | 202° |
| 2026-04-29 01:53 | 53.23836 | -113.84713 | 16449 ft | 395 kts | 202° |
| 2026-04-29 01:53 | 53.21239 | -113.86313 | 17346 ft | 400 kts | 202° |
| 2026-04-29 01:54 | 53.18623 | -113.87942 | 18222 ft | 404 kts | 202° |
| 2026-04-29 01:54 | 53.15974 | -113.89599 | 19005 ft | 409 kts | 202° |
| 2026-04-29 01:54 | 53.13290 | -113.91281 | 19725 ft | 414 kts | 202° |
| 2026-04-29 01:54 | 53.10576 | -113.92978 | 20439 ft | 420 kts | 202° |
| 2026-04-29 01:55 | 53.07862 | -113.94669 | 21141 ft | 425 kts | 202° |
| 2026-04-29 01:55 | 53.05074 | -113.96399 | 21845 ft | 430 kts | 202° |
| 2026-04-29 01:55 | 53.02254 | -113.98146 | 22532 ft | 436 kts | 202° |
| 2026-04-29 01:55 | 52.99397 | -113.99913 | 23214 ft | 441 kts | 202° |
| 2026-04-29 01:56 | 52.96504 | -114.01700 | 23859 ft | 446 kts | 202° |
| 2026-04-29 01:56 | 52.93578 | -114.03501 | 24428 ft | 451 kts | 202° |
| 2026-04-29 01:56 | 52.90624 | -114.05314 | 24984 ft | 455 kts | 202° |
| 2026-04-29 01:56 | 52.87644 | -114.07143 | 25557 ft | 459 kts | 202° |
| 2026-04-29 01:57 | 52.84637 | -114.08983 | 26001 ft | 464 kts | 202° |
| 2026-04-29 01:57 | 52.81568 | -114.10866 | 26132 ft | 478 kts | 202° |
| 2026-04-29 01:57 | 52.78382 | -114.12760 | 26154 ft | 491 kts | 201° |
| 2026-04-29 01:57 | 52.75136 | -114.14578 | 26154 ft | 495 kts | 200° |
| 2026-04-29 01:58 | 52.71893 | -114.16315 | 26149 ft | 496 kts | 200° |
| 2026-04-29 01:58 | 52.68603 | -114.18037 | 26155 ft | 497 kts | 199° |
| 2026-04-29 01:58 | 52.65303 | -114.19760 | 26147 ft | 497 kts | 200° |
| 2026-04-29 01:58 | 52.62016 | -114.21497 | 26149 ft | 497 kts | 200° |
| 2026-04-29 01:59 | 52.58732 | -114.23258 | 26147 ft | 497 kts | 200° |
| 2026-04-29 01:59 | 52.55449 | -114.25034 | 26145 ft | 496 kts | 200° |
| 2026-04-29 01:59 | 52.52170 | -114.26814 | 26148 ft | 496 kts | 200° |
| 2026-04-29 01:59 | 52.48890 | -114.28592 | 26143 ft | 496 kts | 200° |
| 2026-04-29 02:00 | 52.45614 | -114.30363 | 26134 ft | 496 kts | 200° |
| 2026-04-29 02:00 | 52.42335 | -114.32127 | 26132 ft | 496 kts | 200° |
| 2026-04-29 02:00 | 52.39100 | -114.33865 | 26132 ft | 496 kts | 200° |
| 2026-04-29 02:00 | 52.35826 | -114.35619 | 26124 ft | 495 kts | 200° |
| 2026-04-29 02:01 | 52.32543 | -114.37373 | 26123 ft | 495 kts | 200° |
| 2026-04-29 02:01 | 52.29273 | -114.39115 | 26120 ft | 495 kts | 200° |
| 2026-04-29 02:01 | 52.25995 | -114.40860 | 26114 ft | 495 kts | 200° |
| 2026-04-29 02:01 | 52.22724 | -114.42600 | 26116 ft | 495 kts | 200° |
| 2026-04-29 02:02 | 52.19449 | -114.44339 | 26112 ft | 495 kts | 200° |
| 2026-04-29 02:02 | 52.16177 | -114.46074 | 26107 ft | 495 kts | 200° |
| 2026-04-29 02:02 | 52.12894 | -114.47812 | 26112 ft | 495 kts | 200° |
| 2026-04-29 02:02 | 52.09619 | -114.49542 | 26103 ft | 495 kts | 200° |
| 2026-04-29 02:03 | 52.06387 | -114.51249 | 25580 ft | 492 kts | 200° |
| 2026-04-29 02:03 | 52.03137 | -114.52961 | 25311 ft | 490 kts | 200° |
| 2026-04-29 02:03 | 51.99896 | -114.54665 | 25061 ft | 489 kts | 200° |
| 2026-04-29 02:03 | 51.96672 | -114.56363 | 24811 ft | 487 kts | 200° |
| 2026-04-29 02:04 | 51.93453 | -114.58059 | 24571 ft | 486 kts | 200° |
| 2026-04-29 02:04 | 51.90240 | -114.59749 | 24338 ft | 484 kts | 200° |
| 2026-04-29 02:04 | 51.87047 | -114.61426 | 24088 ft | 482 kts | 200° |
| 2026-04-29 02:04 | 51.83857 | -114.63097 | 23858 ft | 481 kts | 200° |
| 2026-04-29 02:05 | 51.80686 | -114.64752 | 23607 ft | 476 kts | 200° |
| 2026-04-29 02:05 | 51.77548 | -114.66385 | 23325 ft | 473 kts | 200° |
| 2026-04-29 02:05 | 51.74342 | -114.67591 | 23040 ft | 475 kts | 190° |
| 2026-04-29 02:05 | 51.71040 | -114.67872 | 22756 ft | 477 kts | 179° |
| 2026-04-29 02:06 | 51.67791 | -114.67195 | 22489 ft | 478 kts | 168° |
| 2026-04-29 02:06 | 51.64635 | -114.65571 | 22223 ft | 476 kts | 157° |
| 2026-04-29 02:06 | 51.61707 | -114.63154 | 21244 ft | 472 kts | 147° |
| 2026-04-29 02:06 | 51.59004 | -114.60172 | 20130 ft | 470 kts | 144° |
| 2026-04-29 02:07 | 51.56351 | -114.57173 | 19169 ft | 464 kts | 144° |
| 2026-04-29 02:07 | 51.53801 | -114.54214 | 18230 ft | 435 kts | 143° |
| 2026-04-29 02:07 | 51.51457 | -114.51451 | 17346 ft | 402 kts | 143° |
| 2026-04-29 02:07 | 51.49208 | -114.48783 | 16579 ft | 404 kts | 143° |
| 2026-04-29 02:08 | 51.47020 | -114.45912 | 15808 ft | 406 kts | 136° |
| 2026-04-29 02:08 | 51.45048 | -114.42782 | 15054 ft | 403 kts | 134° |
| 2026-04-29 02:08 | 51.43060 | -114.39639 | 14322 ft | 400 kts | 134° |
| 2026-04-29 02:08 | 51.41080 | -114.36533 | 13564 ft | 397 kts | 135° |
| 2026-04-29 02:09 | 51.39108 | -114.33455 | 12845 ft | 393 kts | 135° |
| 2026-04-29 02:09 | 51.37157 | -114.30423 | 12149 ft | 389 kts | 135° |
| 2026-04-29 02:09 | 51.35230 | -114.27431 | 11440 ft | 385 kts | 135° |
| 2026-04-29 02:09 | 51.33329 | -114.24480 | 11091 ft | 372 kts | 135° |
| 2026-04-29 02:10 | 51.31522 | -114.21673 | 10966 ft | 353 kts | 136° |
| 2026-04-29 02:10 | 51.29661 | -114.19272 | 10819 ft | 336 kts | 148° |
| 2026-04-29 02:10 | 51.27636 | -114.17611 | 10699 ft | 320 kts | 160° |
| 2026-04-29 02:10 | 51.25543 | -114.16658 | 10543 ft | 306 kts | 172° |
| 2026-04-29 02:11 | 51.23483 | -114.16355 | 10218 ft | 299 kts | 182° |
| 2026-04-29 02:11 | 51.21414 | -114.16361 | 9822 ft | 296 kts | 182° |
| 2026-04-29 02:11 | 51.19362 | -114.16362 | 9398 ft | 293 kts | 182° |
| 2026-04-29 02:11 | 51.17331 | -114.16361 | 8957 ft | 291 kts | 181° |
| 2026-04-29 02:12 | 51.15319 | -114.16361 | 8581 ft | 287 kts | 182° |
| 2026-04-29 02:12 | 51.13352 | -114.16361 | 7796 ft | 281 kts | 181° |
| 2026-04-29 02:12 | 51.11402 | -114.16360 | 6904 ft | 279 kts | 181° |
| 2026-04-29 02:12 | 51.09472 | -114.16358 | 6242 ft | 272 kts | 180° |
| 2026-04-29 02:13 | 51.07673 | -114.16352 | 6061 ft | 246 kts | 180° |
| 2026-04-29 02:13 | 51.06000 | -114.16350 | 6006 ft | 238 kts | 180° |
| 2026-04-29 02:13 | 51.04341 | -114.16348 | 6008 ft | 238 kts | 180° |
| 2026-04-29 02:13 | 51.02706 | -114.16344 | 6009 ft | 239 kts | 180° |
| 2026-04-29 02:14 | 51.01039 | -114.16338 | 6009 ft | 239 kts | 180° |
| 2026-04-29 02:14 | 50.99436 | -114.15800 | 6023 ft | 237 kts | 151° |
| 2026-04-29 02:14 | 50.98242 | -114.14085 | 5768 ft | 232 kts | 118° |
| 2026-04-29 02:14 | 50.97823 | -114.11693 | 5586 ft | 222 kts | 89° |
| 2026-04-29 02:15 | 50.97863 | -114.09316 | 5516 ft | 211 kts | 83° |
| 2026-04-29 02:15 | 50.98128 | -114.07144 | 5506 ft | 194 kts | 60° |
| 2026-04-29 02:15 | 50.98892 | -114.05423 | 5527 ft | 189 kts | 49° |
| 2026-04-29 02:15 | 50.99741 | -114.03841 | 5501 ft | 187 kts | 45° |
| 2026-04-29 02:16 | 51.00755 | -114.02639 | 5357 ft | 182 kts | 25° |
| 2026-04-29 02:16 | 51.01934 | -114.02151 | 5168 ft | 171 kts | 5° |
| 2026-04-29 02:16 | 51.03077 | -114.02142 | 4946 ft | 158 kts | 1° |
| 2026-04-29 02:16 | 51.04129 | -114.02142 | 4761 ft | 143 kts | 2° |
| 2026-04-29 02:17 | 51.05087 | -114.02142 | 4547 ft | 134 kts | 3° |
| 2026-04-29 02:17 | 51.06002 | -114.02139 | 4345 ft | 130 kts | 3° |
| 2026-04-29 02:17 | 51.06909 | -114.02139 | 4161 ft | 130 kts | 3° |
| 2026-04-29 02:17 | 51.07810 | -114.02141 | 3964 ft | 130 kts | 3° |
| 2026-04-29 02:18 | 51.08719 | -114.02149 | 3810 ft | 130 kts | 3° |
| 2026-04-29 02:18 | 51.09618 | -114.02140 | 3622 ft | 130 kts | 4° |
| 2026-04-29 02:18 | 51.10493 | -114.02137 | 3558 ft | 117 kts | 2° |
| 2026-04-29 02:18 | 51.11108 | -114.02134 | 3558 ft | 53 kts | 0° |
| 2026-04-29 02:19 | 51.11383 | -114.02131 | 3558 ft | 38 kts | 360° |
| 2026-04-29 02:19 | 51.11682 | -114.02129 | 3554 ft | 50 kts | 0° |
| 2026-04-29 02:19 | 51.12062 | -114.02132 | 3562 ft | 55 kts | 360° |
| 2026-04-29 02:19 | 51.12302 | -114.02075 | 3558 ft | 26 kts | 33° |
| 2026-04-29 02:20 | 51.12463 | -114.01921 | 3560 ft | 28 kts | 30° |
| 2026-04-29 02:20 | 51.12534 | -114.01857 | 3559 ft | 2 kts | 29° |
| 2026-04-29 02:20 | 51.12571 | -114.01822 | 3557 ft | 13 kts | 37° |
| 2026-04-29 02:20 | 51.12606 | -114.01662 | 3560 ft | 17 kts | 90° |
| 2026-04-29 02:21 | 51.12605 | -114.01471 | 3560 ft | 18 kts | 90° |
| 2026-04-29 02:21 | 51.12604 | -114.01268 | 3560 ft | 19 kts | 90° |
| 2026-04-29 02:21 | 51.12611 | -114.01045 | 3560 ft | 21 kts | 85° |
| 2026-04-29 02:21 | 51.12614 | -114.00806 | 3560 ft | 22 kts | 90° |
| 2026-04-29 02:22 | 51.12616 | -114.00550 | 3560 ft | 24 kts | 90° |
| 2026-04-29 02:22 | 51.12614 | -114.00278 | 3560 ft | 25 kts | 90° |
| 2026-04-29 02:22 | 51.12614 | -113.99988 | 3560 ft | 27 kts | 89° |
| 2026-04-29 02:22 | 51.12613 | -113.99680 | 3560 ft | 28 kts | 91° |
| 2026-04-29 02:23 | 51.12627 | -113.99465 | 3557 ft | 15 kts | 43° |
| 2026-04-29 02:23 | 51.12748 | -113.99444 | 3558 ft | 23 kts | 360° |
| 2026-04-29 02:23 | 51.12912 | -113.99443 | 3560 ft | 24 kts | 1° |
| 2026-04-29 02:23 | 51.13076 | -113.99445 | 3560 ft | 19 kts | 358° |
| 2026-04-29 02:24 | 51.13154 | -113.99478 | 3558 ft | 10 kts | 305° |
| 2026-04-29 02:24 | 51.13160 | -113.99580 | 3560 ft | 9 kts | 269° |
| 2026-04-29 02:24 | 51.13160 | -113.99693 | 3560 ft | 12 kts | 270° |
| 2026-04-29 02:25 | 51.13161 | -113.99947 | 3560 ft | 8 kts | 270° |
| 2026-04-29 02:25 | 51.13161 | -113.99952 | 3560 ft | 0 kts | 270° |
| 2026-04-29 02:25 | 51.13161 | -113.99963 | 3560 ft | 4 kts | 270° |
| 2026-04-29 02:25 | 51.13161 | -114.00017 | 3560 ft | 5 kts | 268° |
| 2026-04-29 02:26 | 51.13125 | -114.00047 | 3560 ft | 9 kts | 180° |
| 2026-04-29 02:26 | 51.13088 | -114.00047 | 3558 ft | 3 kts | 180° |
| 2026-04-29 02:26 | 51.13073 | -114.00047 | 3560 ft | 1 kts | 179° |
| 2026-04-29 02:26 | 51.13071 | -114.00047 | 3560 ft | 1 kts | 179° |
| 2026-04-29 02:27 | 51.13068 | -114.00047 | 3560 ft | 0 kts | 179° |